sensor_id;sensor_type;location;lat;lon;timestamp;pressure;altitude;pressure_sealevel;temperature
64394;BMP280;50712;49.506;10.400;2024-01-15T00:00:09;96810.94;;;-0.96
64394;BMP280;50712;49.506;10.400;2024-01-15T00:00:43;96813.59;;;-0.96
64394;BMP280;50712;49.506;10.400;2024-01-15T00:01:13;96814.38;;;-0.96
64394;BMP280;50712;49.506;10.400;2024-01-15T00:01:43;96812.44;;;-0.95
64394;BMP280;50712;49.506;10.400;2024-01-15T00:02:14;96807.50;;;-0.97
64394;BMP280;50712;49.506;10.400;2024-01-15T00:02:45;96812.44;;;-0.95
64394;BMP280;50712;49.506;10.400;2024-01-15T00:03:15;96816.28;;;-0.96
64394;BMP280;50712;49.506;10.400;2024-01-15T00:03:45;96807.09;;;-0.95
64394;BMP280;50712;49.506;10.400;2024-01-15T00:04:16;96809.75;;;-0.95
64394;BMP280;50712;49.506;10.400;2024-01-15T00:04:46;96803.66;;;-0.96
64394;BMP280;50712;49.506;10.400;2024-01-15T00:05:16;96802.16;;;-0.97
64394;BMP280;50712;49.506;10.400;2024-01-15T00:05:47;96809.75;;;-0.95
64394;BMP280;50712;49.506;10.400;2024-01-15T00:06:17;96804.41;;;-0.95
64394;BMP280;50712;49.506;10.400;2024-01-15T00:06:48;96807.84;;;-0.95
64394;BMP280;50712;49.506;10.400;2024-01-15T00:07:19;96804.41;;;-0.95
64394;BMP280;50712;49.506;10.400;2024-01-15T00:07:49;96812.06;;;-0.94
64394;BMP280;50712;49.506;10.400;2024-01-15T00:08:20;96794.47;;;-0.95
64394;BMP280;50712;49.506;10.400;2024-01-15T00:08:50;96800.59;;;-0.94
64394;BMP280;50712;49.506;10.400;2024-01-15T00:09:20;96788.38;;;-0.95
64394;BMP280;50712;49.506;10.400;2024-01-15T00:09:51;96795.66;;;-0.96
64394;BMP280;50712;49.506;10.400;2024-01-15T00:10:21;96799.06;;;-0.95
64394;BMP280;50712;49.506;10.400;2024-01-15T00:10:51;96788.38;;;-0.95
64394;BMP280;50712;49.506;10.400;2024-01-15T00:11:22;96795.66;;;-0.96
64394;BMP280;50712;49.506;10.400;2024-01-15T00:11:52;96787.63;;;-0.96
64394;BMP280;50712;49.506;10.400;2024-01-15T00:12:23;96786.88;;;-0.96
64394;BMP280;50712;49.506;10.400;2024-01-15T00:12:53;96791.03;;;-0.95
64394;BMP280;50712;49.506;10.400;2024-01-15T00:13:23;96792.22;;;-0.96
64394;BMP280;50712;49.506;10.400;2024-01-15T00:13:54;96789.53;;;-0.96
64394;BMP280;50712;49.506;10.400;2024-01-15T00:14:24;96788.78;;;-0.97
64394;BMP280;50712;49.506;10.400;2024-01-15T00:14:54;96786.13;;;-0.97
64394;BMP280;50712;49.506;10.400;2024-01-15T00:15:25;96783.03;;;-0.95
64394;BMP280;50712;49.506;10.400;2024-01-15T00:15:56;96778.09;;;-0.97
64394;BMP280;50712;49.506;10.400;2024-01-15T00:16:27;96780.34;;;-0.95
64394;BMP280;50712;49.506;10.400;2024-01-15T00:16:57;96773.50;;;-0.96
64394;BMP280;50712;49.506;10.400;2024-01-15T00:17:27;96775.00;;;-0.95
64394;BMP280;50712;49.506;10.400;2024-01-15T00:17:58;96770.06;;;-0.97
64394;BMP280;50712;49.506;10.400;2024-01-15T00:18:28;96776.94;;;-0.96
64394;BMP280;50712;49.506;10.400;2024-01-15T00:18:58;96771.97;;;-0.97
64394;BMP280;50712;49.506;10.400;2024-01-15T00:19:29;96776.56;;;-0.98
64394;BMP280;50712;49.506;10.400;2024-01-15T00:20:02;96774.28;;;-0.96
64394;BMP280;50712;49.506;10.400;2024-01-15T00:20:33;96772.75;;;-0.97
64394;BMP280;50712;49.506;10.400;2024-01-15T00:21:04;96784.97;;;-0.96
64394;BMP280;50712;49.506;10.400;2024-01-15T00:21:34;96784.97;;;-0.96
64394;BMP280;50712;49.506;10.400;2024-01-15T00:22:04;96784.19;;;-0.96
64394;BMP280;50712;49.506;10.400;2024-01-15T00:22:35;96777.31;;;-0.97
64394;BMP280;50712;49.506;10.400;2024-01-15T00:23:06;96771.97;;;-0.97
64394;BMP280;50712;49.506;10.400;2024-01-15T00:23:36;96772.75;;;-0.97
64394;BMP280;50712;49.506;10.400;2024-01-15T00:24:06;96776.56;;;-0.98
64394;BMP280;50712;49.506;10.400;2024-01-15T00:24:37;96763.97;;;-0.97
64394;BMP280;50712;49.506;10.400;2024-01-15T00:25:07;96767.78;;;-0.98
64394;BMP280;50712;49.506;10.400;2024-01-15T00:25:38;96773.13;;;-0.98
64394;BMP280;50712;49.506;10.400;2024-01-15T00:26:08;96767.78;;;-0.98
64394;BMP280;50712;49.506;10.400;2024-01-15T00:26:39;96778.47;;;-0.98
64394;BMP280;50712;49.506;10.400;2024-01-15T00:27:09;96780.00;;;-0.97
64394;BMP280;50712;49.506;10.400;2024-01-15T00:27:40;96777.72;;;-0.99
64394;BMP280;50712;49.506;10.400;2024-01-15T00:28:10;96772.38;;;-0.99
64394;BMP280;50712;49.506;10.400;2024-01-15T00:28:41;96771.63;;;-0.99
64394;BMP280;50712;49.506;10.400;2024-01-15T00:29:11;96768.94;;;-0.99
64394;BMP280;50712;49.506;10.400;2024-01-15T00:29:41;96775.44;;;-1.00
64394;BMP280;50712;49.506;10.400;2024-01-15T00:30:12;96768.19;;;-1.00
64394;BMP280;50712;49.506;10.400;2024-01-15T00:30:42;96760.16;;;-1.00
64394;BMP280;50712;49.506;10.400;2024-01-15T00:31:15;96762.09;;;-1.00
64394;BMP280;50712;49.506;10.400;2024-01-15T00:31:46;96755.97;;;-1.01
64394;BMP280;50712;49.506;10.400;2024-01-15T00:32:17;96757.88;;;-1.01
64394;BMP280;50712;49.506;10.400;2024-01-15T00:32:47;96764.00;;;-1.01
64394;BMP280;50712;49.506;10.400;2024-01-15T00:33:18;96762.84;;;-1.00
64394;BMP280;50712;49.506;10.400;2024-01-15T00:33:48;96760.16;;;-1.00
64394;BMP280;50712;49.506;10.400;2024-01-15T00:34:18;96746.81;;;-1.00
64394;BMP280;50712;49.506;10.400;2024-01-15T00:34:49;96759.41;;;-1.00
64394;BMP280;50712;49.506;10.400;2024-01-15T00:35:20;96755.59;;;-0.99
64394;BMP280;50712;49.506;10.400;2024-01-15T00:35:51;96754.06;;;-1.00
64394;BMP280;50712;49.506;10.400;2024-01-15T00:36:21;96752.16;;;-1.00
64394;BMP280;50712;49.506;10.400;2024-01-15T00:36:51;96749.47;;;-1.00
64394;BMP280;50712;49.506;10.400;2024-01-15T00:37:22;96750.25;;;-0.99
64394;BMP280;50712;49.506;10.400;2024-01-15T00:37:52;96749.47;;;-1.00
64394;BMP280;50712;49.506;10.400;2024-01-15T00:38:22;96750.25;;;-0.99
64394;BMP280;50712;49.506;10.400;2024-01-15T00:38:53;96753.69;;;-0.99
64394;BMP280;50712;49.506;10.400;2024-01-15T00:39:23;96755.59;;;-0.99
64394;BMP280;50712;49.506;10.400;2024-01-15T00:39:54;96752.16;;;-1.00
64394;BMP280;50712;49.506;10.400;2024-01-15T00:40:24;96753.69;;;-0.99
64394;BMP280;50712;49.506;10.400;2024-01-15T00:40:55;96755.19;;;-0.98
64394;BMP280;50712;49.506;10.400;2024-01-15T00:41:26;96760.94;;;-0.99
64394;BMP280;50712;49.506;10.400;2024-01-15T00:41:57;96760.16;;;-1.00
64394;BMP280;50712;49.506;10.400;2024-01-15T00:42:28;96760.94;;;-0.99
64394;BMP280;50712;49.506;10.400;2024-01-15T00:42:58;96770.84;;;-1.00
64394;BMP280;50712;49.506;10.400;2024-01-15T00:43:28;96758.63;;;-1.01
64394;BMP280;50712;49.506;10.400;2024-01-15T00:43:59;96758.63;;;-1.01
64394;BMP280;50712;49.506;10.400;2024-01-15T00:44:29;96759.41;;;-1.00
64394;BMP280;50712;49.506;10.400;2024-01-15T00:44:59;96752.91;;;-0.99
64394;BMP280;50712;49.506;10.400;2024-01-15T00:45:30;96754.06;;;-1.00
64394;BMP280;50712;49.506;10.400;2024-01-15T00:46:04;96751.38;;;-1.00
64394;BMP280;50712;49.506;10.400;2024-01-15T00:46:41;96754.06;;;-1.00
64394;BMP280;50712;49.506;10.400;2024-01-15T00:47:13;96759.41;;;-1.00
64394;BMP280;50712;49.506;10.400;2024-01-15T00:47:43;96760.16;;;-1.00
64394;BMP280;50712;49.506;10.400;2024-01-15T00:48:14;96762.09;;;-1.00
64394;BMP280;50712;49.506;10.400;2024-01-15T00:48:44;96754.81;;;-1.00
64394;BMP280;50712;49.506;10.400;2024-01-15T00:49:15;96760.16;;;-1.00
64394;BMP280;50712;49.506;10.400;2024-01-15T00:49:46;96760.16;;;-1.00
64394;BMP280;50712;49.506;10.400;2024-01-15T00:50:16;96759.03;;;-0.99
64394;BMP280;50712;49.506;10.400;2024-01-15T00:50:47;96757.84;;;-0.98
64394;BMP280;50712;49.506;10.400;2024-01-15T00:51:17;96757.84;;;-0.98
64394;BMP280;50712;49.506;10.400;2024-01-15T00:51:48;96753.28;;;-0.97
64394;BMP280;50712;49.506;10.400;2024-01-15T00:52:18;96755.19;;;-0.98
64394;BMP280;50712;49.506;10.400;2024-01-15T00:52:48;96757.47;;;-0.96
64394;BMP280;50712;49.506;10.400;2024-01-15T00:53:19;96754.81;;;-0.96
64394;BMP280;50712;49.506;10.400;2024-01-15T00:53:50;96745.63;;;-0.95
64394;BMP280;50712;49.506;10.400;2024-01-15T00:54:20;96751.72;;;-0.95
64394;BMP280;50712;49.506;10.400;2024-01-15T00:54:50;96747.91;;;-0.94
64394;BMP280;50712;49.506;10.400;2024-01-15T00:55:21;96755.94;;;-0.94
64394;BMP280;50712;49.506;10.400;2024-01-15T00:55:51;96754.03;;;-0.93
64394;BMP280;50712;49.506;10.400;2024-01-15T00:56:22;96753.59;;;-0.92
64394;BMP280;50712;49.506;10.400;2024-01-15T00:56:52;96758.19;;;-0.92
64394;BMP280;50712;49.506;10.400;2024-01-15T00:57:22;96749.78;;;-0.91
64394;BMP280;50712;49.506;10.400;2024-01-15T00:57:53;96753.22;;;-0.90
64394;BMP280;50712;49.506;10.400;2024-01-15T00:58:23;96755.13;;;-0.91
64394;BMP280;50712;49.506;10.400;2024-01-15T00:58:53;96759.34;;;-0.90
64394;BMP280;50712;49.506;10.400;2024-01-15T00:59:24;96754.00;;;-0.90
64394;BMP280;50712;49.506;10.400;2024-01-15T00:59:54;96757.44;;;-0.89
64394;BMP280;50712;49.506;10.400;2024-01-15T01:00:25;96758.94;;;-0.88
64394;BMP280;50712;49.506;10.400;2024-01-15T01:00:55;96765.03;;;-0.88
64394;BMP280;50712;49.506;10.400;2024-01-15T01:01:25;96756.25;;;-0.88
64394;BMP280;50712;49.506;10.400;2024-01-15T01:01:56;96767.34;;;-0.86
64394;BMP280;50712;49.506;10.400;2024-01-15T01:02:26;96765.41;;;-0.86
64394;BMP280;50712;49.506;10.400;2024-01-15T01:02:57;96760.06;;;-0.86
64394;BMP280;50712;49.506;10.400;2024-01-15T01:03:27;96762.34;;;-0.84
64394;BMP280;50712;49.506;10.400;2024-01-15T01:03:57;96758.91;;;-0.85
64394;BMP280;50712;49.506;10.400;2024-01-15T01:04:28;96757.00;;;-0.84
64394;BMP280;50712;49.506;10.400;2024-01-15T01:04:58;96761.94;;;-0.83
64394;BMP280;50712;49.506;10.400;2024-01-15T01:05:29;96755.84;;;-0.83
64394;BMP280;50712;49.506;10.400;2024-01-15T01:05:59;96755.84;;;-0.83
64394;BMP280;50712;49.506;10.400;2024-01-15T01:06:29;96754.69;;;-0.82
64394;BMP280;50712;49.506;10.400;2024-01-15T01:07:00;96752.78;;;-0.82
64394;BMP280;50712;49.506;10.400;2024-01-15T01:07:30;96748.19;;;-0.81
64394;BMP280;50712;49.506;10.400;2024-01-15T01:08:00;96754.31;;;-0.81
64394;BMP280;50712;49.506;10.400;2024-01-15T01:08:31;96747.06;;;-0.80
64394;BMP280;50712;49.506;10.400;2024-01-15T01:09:01;96746.28;;;-0.81
64394;BMP280;50712;49.506;10.400;2024-01-15T01:09:32;96747.41;;;-0.78
64394;BMP280;50712;49.506;10.400;2024-01-15T01:10:03;96744.72;;;-0.78
64394;BMP280;50712;49.506;10.400;2024-01-15T01:10:33;96745.50;;;-0.78
64394;BMP280;50712;49.506;10.400;2024-01-15T01:11:04;96747.75;;;-0.76
64394;BMP280;50712;49.506;10.400;2024-01-15T01:11:34;96746.63;;;-0.75
64394;BMP280;50712;49.506;10.400;2024-01-15T01:12:05;96746.97;;;-0.73
64394;BMP280;50712;49.506;10.400;2024-01-15T01:12:36;96753.84;;;-0.72
64394;BMP280;50712;49.506;10.400;2024-01-15T01:13:06;96745.81;;;-0.72
64394;BMP280;50712;49.506;10.400;2024-01-15T01:13:36;96756.88;;;-0.70
64394;BMP280;50712;49.506;10.400;2024-01-15T01:14:07;96748.84;;;-0.70
64394;BMP280;50712;49.506;10.400;2024-01-15T01:14:37;96752.28;;;-0.70
64394;BMP280;50712;49.506;10.400;2024-01-15T01:15:08;96754.19;;;-0.70
64394;BMP280;50712;49.506;10.400;2024-01-15T01:15:39;96750.38;;;-0.69
64394;BMP280;50712;49.506;10.400;2024-01-15T01:16:09;96745.03;;;-0.69
64394;BMP280;50712;49.506;10.400;2024-01-15T01:16:40;96754.97;;;-0.70
64394;BMP280;50712;49.506;10.400;2024-01-15T01:17:10;96750.00;;;-0.68
64394;BMP280;50712;49.506;10.400;2024-01-15T01:17:40;96754.59;;;-0.68
64394;BMP280;50712;49.506;10.400;2024-01-15T01:18:11;96748.47;;;-0.69
64394;BMP280;50712;49.506;10.400;2024-01-15T01:18:41;96751.91;;;-0.68
64394;BMP280;50712;49.506;10.400;2024-01-15T01:19:12;96743.91;;;-0.68
64394;BMP280;50712;49.506;10.400;2024-01-15T01:19:42;96745.81;;;-0.69
64394;BMP280;50712;49.506;10.400;2024-01-15T01:20:13;96737.78;;;-0.69
64394;BMP280;50712;49.506;10.400;2024-01-15T01:20:45;96741.97;;;-0.68
64394;BMP280;50712;49.506;10.400;2024-01-15T01:21:15;96744.66;;;-0.68
64394;BMP280;50712;49.506;10.400;2024-01-15T01:21:46;96750.34;;;-0.66
64394;BMP280;50712;49.506;10.400;2024-01-15T01:22:17;96738.91;;;-0.66
64394;BMP280;50712;49.506;10.400;2024-01-15T01:22:47;96741.56;;;-0.66
64394;BMP280;50712;49.506;10.400;2024-01-15T01:23:17;96744.63;;;-0.64
64394;BMP280;50712;49.506;10.400;2024-01-15T01:23:48;96738.53;;;-0.65
64394;BMP280;50712;49.506;10.400;2024-01-15T01:24:18;96744.63;;;-0.64
64394;BMP280;50712;49.506;10.400;2024-01-15T01:24:48;96736.59;;;-0.64
64394;BMP280;50712;49.506;10.400;2024-01-15T01:25:19;96746.13;;;-0.63
64394;BMP280;50712;49.506;10.400;2024-01-15T01:25:49;96739.28;;;-0.64
64394;BMP280;50712;49.506;10.400;2024-01-15T01:26:19;96747.66;;;-0.62
64394;BMP280;50712;49.506;10.400;2024-01-15T01:26:50;96744.22;;;-0.63
64394;BMP280;50712;49.506;10.400;2024-01-15T01:27:20;96741.16;;;-0.61
64394;BMP280;50712;49.506;10.400;2024-01-15T01:27:50;96744.56;;;-0.61
64394;BMP280;50712;49.506;10.400;2024-01-15T01:28:21;96741.91;;;-0.61
64394;BMP280;50712;49.506;10.400;2024-01-15T01:28:51;96745.34;;;-0.60
64394;BMP280;50712;49.506;10.400;2024-01-15T01:29:22;96747.25;;;-0.61
64394;BMP280;50712;49.506;10.400;2024-01-15T01:29:53;96741.91;;;-0.61
64394;BMP280;50712;49.506;10.400;2024-01-15T01:30:23;96740.75;;;-0.60
64394;BMP280;50712;49.506;10.400;2024-01-15T01:30:53;96737.31;;;-0.60
64394;BMP280;50712;49.506;10.400;2024-01-15T01:31:24;96738.84;;;-0.59
64394;BMP280;50712;49.506;10.400;2024-01-15T01:31:54;96743.03;;;-0.58
64394;BMP280;50712;49.506;10.400;2024-01-15T01:32:24;96741.13;;;-0.58
64394;BMP280;50712;49.506;10.400;2024-01-15T01:32:55;96741.88;;;-0.57
64394;BMP280;50712;49.506;10.400;2024-01-15T01:33:25;96743.03;;;-0.58
64394;BMP280;50712;49.506;10.400;2024-01-15T01:33:55;96746.84;;;-0.56
64394;BMP280;50712;49.506;10.400;2024-01-15T01:34:26;96739.97;;;-0.57
64394;BMP280;50712;49.506;10.400;2024-01-15T01:34:56;96748.00;;;-0.57
64394;BMP280;50712;49.506;10.400;2024-01-15T01:35:26;96744.16;;;-0.56
64394;BMP280;50712;49.506;10.400;2024-01-15T01:35:57;96746.06;;;-0.56
64394;BMP280;50712;49.506;10.400;2024-01-15T01:36:27;96746.84;;;-0.56
64394;BMP280;50712;49.506;10.400;2024-01-15T01:36:58;96750.28;;;-0.55
64394;BMP280;50712;49.506;10.400;2024-01-15T01:37:28;96758.31;;;-0.55
64394;BMP280;50712;49.506;10.400;2024-01-15T01:37:58;96750.28;;;-0.55
64394;BMP280;50712;49.506;10.400;2024-01-15T01:38:29;96748.38;;;-0.55
64394;BMP280;50712;49.506;10.400;2024-01-15T01:38:59;96748.38;;;-0.55
64394;BMP280;50712;49.506;10.400;2024-01-15T01:39:30;96747.59;;;-0.55
64394;BMP280;50712;49.506;10.400;2024-01-15T01:40:00;96751.03;;;-0.55
64394;BMP280;50712;49.506;10.400;2024-01-15T01:40:30;96749.09;;;-0.54
64394;BMP280;50712;49.506;10.400;2024-01-15T01:41:01;96748.38;;;-0.55
64394;BMP280;50712;49.506;10.400;2024-01-15T01:41:31;96743.75;;;-0.54
64394;BMP280;50712;49.506;10.400;2024-01-15T01:42:01;96744.53;;;-0.54
64394;BMP280;50712;49.506;10.400;2024-01-15T01:42:32;96746.06;;;-0.53
64394;BMP280;50712;49.506;10.400;2024-01-15T01:43:03;96741.47;;;-0.52
64394;BMP280;50712;49.506;10.400;2024-01-15T01:43:33;96739.56;;;-0.52
64394;BMP280;50712;49.506;10.400;2024-01-15T01:44:03;96750.25;;;-0.52
64394;BMP280;50712;49.506;10.400;2024-01-15T01:44:34;96746.81;;;-0.52
64394;BMP280;50712;49.506;10.400;2024-01-15T01:45:04;96740.28;;;-0.51
64394;BMP280;50712;49.506;10.400;2024-01-15T01:45:35;96740.28;;;-0.51
64394;BMP280;50712;49.506;10.400;2024-01-15T01:46:06;96749.47;;;-0.52
64394;BMP280;50712;49.506;10.400;2024-01-15T01:46:37;96747.56;;;-0.52
64394;BMP280;50712;49.506;10.400;2024-01-15T01:47:11;96748.31;;;-0.51
64394;BMP280;50712;49.506;10.400;2024-01-15T01:47:42;96744.50;;;-0.50
64394;BMP280;50712;49.506;10.400;2024-01-15T01:48:13;96745.63;;;-0.51
64394;BMP280;50712;49.506;10.400;2024-01-15T01:48:43;96748.72;;;-0.53
64394;BMP280;50712;49.506;10.400;2024-01-15T01:49:13;96749.06;;;-0.51
64394;BMP280;50712;49.506;10.400;2024-01-15T01:49:44;96749.84;;;-0.50
64394;BMP280;50712;49.506;10.400;2024-01-15T01:50:15;96750.59;;;-0.49
64394;BMP280;50712;49.506;10.400;2024-01-15T01:50:46;96751.38;;;-0.49
64394;BMP280;50712;49.506;10.400;2024-01-15T01:51:16;96760.16;;;-0.48
64394;BMP280;50712;49.506;10.400;2024-01-15T01:51:47;96750.22;;;-0.48
64394;BMP280;50712;49.506;10.400;2024-01-15T01:52:17;96752.13;;;-0.48
64394;BMP280;50712;49.506;10.400;2024-01-15T01:52:48;96754.41;;;-0.47
64394;BMP280;50712;49.506;10.400;2024-01-15T01:53:19;96754.41;;;-0.47
64394;BMP280;50712;49.506;10.400;2024-01-15T01:53:50;96751.34;;;-0.45
64394;BMP280;50712;49.506;10.400;2024-01-15T01:54:21;96749.06;;;-0.47
64394;BMP280;50712;49.506;10.400;2024-01-15T01:54:51;96742.56;;;-0.46
64394;BMP280;50712;49.506;10.400;2024-01-15T01:55:22;96743.31;;;-0.45
64394;BMP280;50712;49.506;10.400;2024-01-15T01:55:56;96739.88;;;-0.46
64394;BMP280;50712;49.506;10.400;2024-01-15T01:56:27;96731.84;;;-0.46
64394;BMP280;50712;49.506;10.400;2024-01-15T01:56:57;96738.72;;;-0.45
64394;BMP280;50712;49.506;10.400;2024-01-15T01:57:28;96736.06;;;-0.45
64394;BMP280;50712;49.506;10.400;2024-01-15T01:58:00;96734.88;;;-0.44
64394;BMP280;50712;49.506;10.400;2024-01-15T01:58:32;96742.13;;;-0.44
64394;BMP280;50712;49.506;10.400;2024-01-15T01:59:03;96742.91;;;-0.44
64394;BMP280;50712;49.506;10.400;2024-01-15T01:59:34;96738.31;;;-0.43
64394;BMP280;50712;49.506;10.400;2024-01-15T02:00:06;96740.22;;;-0.44
64394;BMP280;50712;49.506;10.400;2024-01-15T02:00:41;96742.13;;;-0.44
64394;BMP280;50712;49.506;10.400;2024-01-15T02:01:12;96743.66;;;-0.43
64394;BMP280;50712;49.506;10.400;2024-01-15T02:01:42;96752.47;;;-0.43
64394;BMP280;50712;49.506;10.400;2024-01-15T02:02:16;96749.78;;;-0.43
64394;BMP280;50712;49.506;10.400;2024-01-15T02:02:48;96751.31;;;-0.42
64394;BMP280;50712;49.506;10.400;2024-01-15T02:03:18;96744.44;;;-0.43
64394;BMP280;50712;49.506;10.400;2024-01-15T02:03:48;96746.34;;;-0.43
64394;BMP280;50712;49.506;10.400;2024-01-15T02:04:19;96747.09;;;-0.43
64394;BMP280;50712;49.506;10.400;2024-01-15T02:04:49;96747.09;;;-0.43
64394;BMP280;50712;49.506;10.400;2024-01-15T02:05:20;96745.97;;;-0.42
64394;BMP280;50712;49.506;10.400;2024-01-15T02:05:51;96746.69;;;-0.41
64394;BMP280;50712;49.506;10.400;2024-01-15T02:06:23;96751.31;;;-0.42
64394;BMP280;50712;49.506;10.400;2024-01-15T02:06:54;96742.53;;;-0.42
64394;BMP280;50712;49.506;10.400;2024-01-15T02:07:24;96745.97;;;-0.42
64394;BMP280;50712;49.506;10.400;2024-01-15T02:07:55;96742.13;;;-0.41
64394;BMP280;50712;49.506;10.400;2024-01-15T02:08:26;96751.31;;;-0.42
64394;BMP280;50712;49.506;10.400;2024-01-15T02:08:56;96745.56;;;-0.40
64394;BMP280;50712;49.506;10.400;2024-01-15T02:09:27;96750.13;;;-0.41
64394;BMP280;50712;49.506;10.400;2024-01-15T02:09:57;96749.00;;;-0.40
64394;BMP280;50712;49.506;10.400;2024-01-15T02:10:28;96749.00;;;-0.40
64394;BMP280;50712;49.506;10.400;2024-01-15T02:10:58;96749.00;;;-0.40
64394;BMP280;50712;49.506;10.400;2024-01-15T02:11:28;96749.00;;;-0.40
64394;BMP280;50712;49.506;10.400;2024-01-15T02:11:59;96740.97;;;-0.40
64394;BMP280;50712;49.506;10.400;2024-01-15T02:12:30;96744.41;;;-0.39
64394;BMP280;50712;49.506;10.400;2024-01-15T02:13:00;96741.72;;;-0.39
64394;BMP280;50712;49.506;10.400;2024-01-15T02:13:31;96748.22;;;-0.40
64394;BMP280;50712;49.506;10.400;2024-01-15T02:14:01;96751.28;;;-0.38
64394;BMP280;50712;49.506;10.400;2024-01-15T02:14:32;96753.19;;;-0.39
64394;BMP280;50712;49.506;10.400;2024-01-15T02:15:03;96745.16;;;-0.39
64394;BMP280;50712;49.506;10.400;2024-01-15T02:15:34;96747.84;;;-0.39
64394;BMP280;50712;49.506;10.400;2024-01-15T02:16:04;96745.16;;;-0.39
64394;BMP280;50712;49.506;10.400;2024-01-15T02:16:34;96745.94;;;-0.38
64394;BMP280;50712;49.506;10.400;2024-01-15T02:17:05;96745.94;;;-0.38
64394;BMP280;50712;49.506;10.400;2024-01-15T02:17:56;96746.66;;;-0.38
64394;BMP280;50712;49.506;10.400;2024-01-15T02:18:27;96741.31;;;-0.38
64394;BMP280;50712;49.506;10.400;2024-01-15T02:18:58;96735.97;;;-0.38
64394;BMP280;50712;49.506;10.400;2024-01-15T02:19:28;96735.59;;;-0.36
64394;BMP280;50712;49.506;10.400;2024-01-15T02:19:58;96738.25;;;-0.36
64394;BMP280;50712;49.506;10.400;2024-01-15T02:20:29;96731.00;;;-0.36
64394;BMP280;50712;49.506;10.400;2024-01-15T02:21:00;96731.75;;;-0.35
64394;BMP280;50712;49.506;10.400;2024-01-15T02:21:31;96737.13;;;-0.35
64394;BMP280;50712;49.506;10.400;2024-01-15T02:22:01;96737.84;;;-0.35
64394;BMP280;50712;49.506;10.400;2024-01-15T02:22:32;96737.84;;;-0.35
64394;BMP280;50712;49.506;10.400;2024-01-15T02:23:07;96733.69;;;-0.36
64394;BMP280;50712;49.506;10.400;2024-01-15T02:23:45;96735.19;;;-0.35
64394;BMP280;50712;49.506;10.400;2024-01-15T02:24:15;96731.75;;;-0.35
64394;BMP280;50712;49.506;10.400;2024-01-15T02:24:45;96735.19;;;-0.35
64394;BMP280;50712;49.506;10.400;2024-01-15T02:25:16;96735.94;;;-0.34
64394;BMP280;50712;49.506;10.400;2024-01-15T02:25:46;96735.94;;;-0.34
64394;BMP280;50712;49.506;10.400;2024-01-15T02:26:17;96728.69;;;-0.34
64394;BMP280;50712;49.506;10.400;2024-01-15T02:26:48;96733.25;;;-0.34
64394;BMP280;50712;49.506;10.400;2024-01-15T02:27:19;96733.25;;;-0.34
64394;BMP280;50712;49.506;10.400;2024-01-15T02:27:49;96735.94;;;-0.34
64394;BMP280;50712;49.506;10.400;2024-01-15T02:28:20;96734.78;;;-0.33
64394;BMP280;50712;49.506;10.400;2024-01-15T02:28:50;96733.63;;;-0.32
64394;BMP280;50712;49.506;10.400;2024-01-15T02:29:21;96737.09;;;-0.32
64394;BMP280;50712;49.506;10.400;2024-01-15T02:29:51;96740.53;;;-0.31
64394;BMP280;50712;49.506;10.400;2024-01-15T02:30:22;96735.56;;;-0.33
64394;BMP280;50712;49.506;10.400;2024-01-15T02:30:53;96735.16;;;-0.31
64394;BMP280;50712;49.506;10.400;2024-01-15T02:31:24;96735.94;;;-0.31
64394;BMP280;50712;49.506;10.400;2024-01-15T02:31:54;96738.59;;;-0.31
64394;BMP280;50712;49.506;10.400;2024-01-15T02:32:25;96740.13;;;-0.30
64394;BMP280;50712;49.506;10.400;2024-01-15T02:32:55;96740.13;;;-0.30
64394;BMP280;50712;49.506;10.400;2024-01-15T02:33:25;96740.91;;;-0.29
64394;BMP280;50712;49.506;10.400;2024-01-15T02:33:56;96747.03;;;-0.29
64394;BMP280;50712;49.506;10.400;2024-01-15T02:34:26;96743.16;;;-0.28
64394;BMP280;50712;49.506;10.400;2024-01-15T02:35:02;96744.34;;;-0.29
64394;BMP280;50712;49.506;10.400;2024-01-15T02:35:32;96737.06;;;-0.28
64394;BMP280;50712;49.506;10.400;2024-01-15T02:36:03;96741.25;;;-0.27
64394;BMP280;50712;49.506;10.400;2024-01-15T02:36:34;96734.00;;;-0.27
64394;BMP280;50712;49.506;10.400;2024-01-15T02:37:04;96725.97;;;-0.27
64394;BMP280;50712;49.506;10.400;2024-01-15T02:37:35;96728.66;;;-0.27
64394;BMP280;50712;49.506;10.400;2024-01-15T02:38:06;96731.31;;;-0.27
64394;BMP280;50712;49.506;10.400;2024-01-15T02:38:37;96735.91;;;-0.27
64394;BMP280;50712;49.506;10.400;2024-01-15T02:39:08;96738.94;;;-0.25
64394;BMP280;50712;49.506;10.400;2024-01-15T02:39:38;96740.09;;;-0.26
64394;BMP280;50712;49.506;10.400;2024-01-15T02:40:09;96731.66;;;-0.25
64394;BMP280;50712;49.506;10.400;2024-01-15T02:40:39;96735.53;;;-0.26
64394;BMP280;50712;49.506;10.400;2024-01-15T02:41:09;96739.31;;;-0.23
64394;BMP280;50712;49.506;10.400;2024-01-15T02:41:40;96742.75;;;-0.23
64394;BMP280;50712;49.506;10.400;2024-01-15T02:42:10;96744.66;;;-0.23
64394;BMP280;50712;49.506;10.400;2024-01-15T02:42:41;96739.31;;;-0.23
64394;BMP280;50712;49.506;10.400;2024-01-15T02:43:11;96741.22;;;-0.24
64394;BMP280;50712;49.506;10.400;2024-01-15T02:43:43;96735.88;;;-0.24
64394;BMP280;50712;49.506;10.400;2024-01-15T02:44:14;96747.34;;;-0.23
64394;BMP280;50712;49.506;10.400;2024-01-15T02:44:44;96736.63;;;-0.23
64394;BMP280;50712;49.506;10.400;2024-01-15T02:45:14;96744.66;;;-0.23
64394;BMP280;50712;49.506;10.400;2024-01-15T02:45:45;96738.13;;;-0.22
64394;BMP280;50712;49.506;10.400;2024-01-15T02:46:16;96737.41;;;-0.23
64394;BMP280;50712;49.506;10.400;2024-01-15T02:46:47;96738.13;;;-0.22
64394;BMP280;50712;49.506;10.400;2024-01-15T02:47:17;96736.63;;;-0.23
64394;BMP280;50712;49.506;10.400;2024-01-15T02:47:47;96738.91;;;-0.22
64394;BMP280;50712;49.506;10.400;2024-01-15T02:48:18;96737.41;;;-0.23
64394;BMP280;50712;49.506;10.400;2024-01-15T02:48:48;96743.50;;;-0.22
64394;BMP280;50712;49.506;10.400;2024-01-15T02:49:19;96737.41;;;-0.23
64394;BMP280;50712;49.506;10.400;2024-01-15T02:49:49;96742.75;;;-0.23
64394;BMP280;50712;49.506;10.400;2024-01-15T02:50:20;96735.47;;;-0.22
64394;BMP280;50712;49.506;10.400;2024-01-15T02:50:50;96736.22;;;-0.22
64394;BMP280;50712;49.506;10.400;2024-01-15T02:51:21;96740.06;;;-0.23
64394;BMP280;50712;49.506;10.400;2024-01-15T02:51:51;96742.75;;;-0.23
64394;BMP280;50712;49.506;10.400;2024-01-15T02:52:21;96753.03;;;-0.21
64394;BMP280;50712;49.506;10.400;2024-01-15T02:52:52;96743.50;;;-0.22
64394;BMP280;50712;49.506;10.400;2024-01-15T02:53:22;96736.97;;;-0.21
64394;BMP280;50712;49.506;10.400;2024-01-15T02:53:53;96739.66;;;-0.21
64394;BMP280;50712;49.506;10.400;2024-01-15T02:54:23;96747.31;;;-0.20